Etusivu
METAR-TAF:

METAR-TAF

Lentoasemat :

N’Djamenan kansainvälinen lentoasema

N'Djamena, Tšad

Leveyspiiri: 12-08N, Pituuspiiri: 015-02E, korkeus merenpinnasta: 295 m

Tämänhetkinen sää

Tämä raportti tehtiin 25 minuuttia sitten, kello 17.00 UTC
Tuuli 2 kn eri suunnista
Lämpötila 41°C
Kosteus 14%
Ilmanpaine 1003 hPa
Näkyvyys: 6000 m

METAR: FTTJ 301700Z VRB02KT 6000 NSC 41/08 Q1003 NOSIG

Aika: 18:25 (17:25 UTC)

Sääennuste

Tämä raportti tehtiin 6 tuntia ja 20 minuuttia sitten, kello 11.05 UTC
Ennuste voimassa 30. päivästä klo 12 UTC - 31. päivään klo 18 UTC
Tuuli 8 kn idästä
Näkyvyys: 4000 m
usvaa
Tulossa
31. päivästä klo 07 UTC - 31. päivään klo 09 UTC
Näkyvyys: 6000 m

TAF: FTTJ 301105Z 3012/3118 08008KT 4000 HZ NSC BECMG 3107/3109 6000

Säähavainnot ja -ennusteet yli 4000 lentoasemalta (METAR- ja TAF-raportit).

Käytössä olevat sääasemat on merkitty karttaan keltaisilla ja punaisilla pisteillä.

Aseta hiiri pisteen päälle nähdäksesi sääaseman nimen.

Klikkaa sitten nähdäksesi säähavainnot ja -ennusteet.

Kartan vaihtaminen: klikkaa mustalla rastilla varustettuja vihreitä pisteitä, niin voit zoomata sisään; viivalla varustettua vihreää pistettä, niin voit zoomata ulos tai vihreitä nuolia, niin pääset viereisille kartoille.


METAR-TAF: